sensor_id;sensor_type;location;lat;lon;timestamp;pressure;altitude;pressure_sealevel;temperature;humidity
11878;BME280;5998;42.676;23.268;2023-01-24T00:02:08;95745.91;;;5.10;100.00
11878;BME280;5998;42.676;23.268;2023-01-24T00:04:36;95740.63;;;5.05;100.00
11878;BME280;5998;42.676;23.268;2023-01-24T00:07:02;95750.22;;;5.06;100.00
11878;BME280;5998;42.676;23.268;2023-01-24T00:09:29;95742.16;;;5.11;100.00
11878;BME280;5998;42.676;23.268;2023-01-24T00:11:56;95747.84;;;5.05;100.00
11878;BME280;5998;42.676;23.268;2023-01-24T00:14:23;95755.03;;;5.04;100.00
11878;BME280;5998;42.676;23.268;2023-01-24T00:16:49;95754.84;;;4.96;100.00
11878;BME280;5998;42.676;23.268;2023-01-24T00:19:16;95761.78;;;4.97;100.00
11878;BME280;5998;42.676;23.268;2023-01-24T00:21:44;95770.50;;;5.07;100.00
11878;BME280;5998;42.676;23.268;2023-01-24T00:24:11;95762.56;;;4.97;100.00
11878;BME280;5998;42.676;23.268;2023-01-24T00:26:37;95765.56;;;4.91;100.00
11878;BME280;5998;42.676;23.268;2023-01-24T00:29:04;95769.31;;;4.90;100.00
11878;BME280;5998;42.676;23.268;2023-01-24T00:31:31;95756.88;;;4.80;100.00
11878;BME280;5998;42.676;23.268;2023-01-24T00:33:57;95756.31;;;4.78;100.00
11878;BME280;5998;42.676;23.268;2023-01-24T00:36:25;95770.56;;;4.97;100.00
11878;BME280;5998;42.676;23.268;2023-01-24T00:38:54;95766.31;;;4.96;100.00
11878;BME280;5998;42.676;23.268;2023-01-24T00:41:21;95767.38;;;4.95;100.00
11878;BME280;5998;42.676;23.268;2023-01-24T00:43:47;95768.69;;;4.98;100.00
11878;BME280;5998;42.676;23.268;2023-01-24T00:46:14;95762.16;;;4.85;100.00
11878;BME280;5998;42.676;23.268;2023-01-24T00:48:41;95764.63;;;4.76;100.00
11878;BME280;5998;42.676;23.268;2023-01-24T00:51:07;95771.88;;;4.71;100.00
11878;BME280;5998;42.676;23.268;2023-01-24T00:53:34;95775.03;;;4.73;100.00
11878;BME280;5998;42.676;23.268;2023-01-24T00:56:02;95770.25;;;4.70;100.00
11878;BME280;5998;42.676;23.268;2023-01-24T00:58:29;95789.81;;;4.60;100.00
11878;BME280;5998;42.676;23.268;2023-01-24T01:00:57;95773.56;;;4.57;100.00
11878;BME280;5998;42.676;23.268;2023-01-24T01:03:25;95759.97;;;4.58;100.00
11878;BME280;5998;42.676;23.268;2023-01-24T01:05:57;95775.66;;;4.65;100.00
11878;BME280;5998;42.676;23.268;2023-01-24T01:08:24;95787.41;;;4.59;100.00
11878;BME280;5998;42.676;23.268;2023-01-24T01:10:51;95778.09;;;4.56;100.00
11878;BME280;5998;42.676;23.268;2023-01-24T01:13:19;95777.56;;;4.59;100.00
11878;BME280;5998;42.676;23.268;2023-01-24T01:15:45;95780.56;;;4.53;100.00
11878;BME280;5998;42.676;23.268;2023-01-24T01:18:12;95771.47;;;4.54;100.00
11878;BME280;5998;42.676;23.268;2023-01-24T01:20:39;95782.06;;;4.64;100.00
11878;BME280;5998;42.676;23.268;2023-01-24T01:23:05;95780.78;;;4.56;100.00
11878;BME280;5998;42.676;23.268;2023-01-24T01:25:32;95780.47;;;4.63;100.00
11878;BME280;5998;42.676;23.268;2023-01-24T01:27:59;95776.69;;;4.69;100.00
11878;BME280;5998;42.676;23.268;2023-01-24T01:30:27;95783.13;;;4.63;100.00
11878;BME280;5998;42.676;23.268;2023-01-24T01:32:53;95781.06;;;4.55;100.00
11878;BME280;5998;42.676;23.268;2023-01-24T01:35:20;95784.78;;;4.54;100.00
11878;BME280;5998;42.676;23.268;2023-01-24T01:37:47;95772.25;;;4.54;100.00
11878;BME280;5998;42.676;23.268;2023-01-24T01:40:14;95755.81;;;4.42;100.00
11878;BME280;5998;42.676;23.268;2023-01-24T01:42:48;95772.22;;;4.59;100.00
11878;BME280;5998;42.676;23.268;2023-01-24T01:45:37;95767.03;;;4.73;100.00
11878;BME280;5998;42.676;23.268;2023-01-24T01:48:21;95772.34;;;4.78;100.00
11878;BME280;5998;42.676;23.268;2023-01-24T01:50:58;95779.53;;;4.83;100.00
11878;BME280;5998;42.676;23.268;2023-01-24T01:53:28;95776.66;;;4.74;100.00
11878;BME280;5998;42.676;23.268;2023-01-24T01:56:01;95773.56;;;4.91;100.00
11878;BME280;5998;42.676;23.268;2023-01-24T01:58:32;95771.72;;;4.91;100.00
11878;BME280;5998;42.676;23.268;2023-01-24T02:01:01;95766.19;;;4.83;100.00
11878;BME280;5998;42.676;23.268;2023-01-24T02:03:34;95772.94;;;4.70;100.00
11878;BME280;5998;42.676;23.268;2023-01-24T02:06:10;95776.06;;;4.82;100.00
11878;BME280;5998;42.676;23.268;2023-01-24T02:08:40;95766.94;;;4.88;100.00
11878;BME280;5998;42.676;23.268;2023-01-24T02:11:09;95765.63;;;4.86;100.00
11878;BME280;5998;42.676;23.268;2023-01-24T02:13:53;95758.47;;;4.76;100.00
11878;BME280;5998;42.676;23.268;2023-01-24T02:16:42;95762.16;;;4.85;100.00
11878;BME280;5998;42.676;23.268;2023-01-24T02:19:18;95755.00;;;4.81;100.00
11878;BME280;5998;42.676;23.268;2023-01-24T02:21:49;95757.94;;;4.79;100.00
11878;BME280;5998;42.676;23.268;2023-01-24T02:24:23;95765.41;;;4.77;100.00
11878;BME280;5998;42.676;23.268;2023-01-24T02:26:53;95768.91;;;4.78;100.00
11878;BME280;5998;42.676;23.268;2023-01-24T02:29:20;95761.25;;;4.66;100.00
11878;BME280;5998;42.676;23.268;2023-01-24T02:31:54;95763.72;;;4.57;100.00
11878;BME280;5998;42.676;23.268;2023-01-24T02:34:22;95775.81;;;4.45;100.00
11878;BME280;5998;42.676;23.268;2023-01-24T02:36:52;95771.03;;;4.42;100.00
11878;BME280;5998;42.676;23.268;2023-01-24T02:39:24;95773.16;;;4.40;100.00
11878;BME280;5998;42.676;23.268;2023-01-24T02:41:55;95770.75;;;4.43;100.00
11878;BME280;5998;42.676;23.268;2023-01-24T02:44:29;95783.22;;;4.48;100.00
11878;BME280;5998;42.676;23.268;2023-01-24T02:46:58;95773.72;;;4.37;100.00
11878;BME280;5998;42.676;23.268;2023-01-24T02:49:25;95774.50;;;4.37;100.00
11878;BME280;5998;42.676;23.268;2023-01-24T02:51:51;95774.78;;;4.36;100.00
11878;BME280;5998;42.676;23.268;2023-01-24T02:54:35;95777.69;;;4.44;100.00
11878;BME280;5998;42.676;23.268;2023-01-24T02:57:03;95766.47;;;4.47;100.00
11878;BME280;5998;42.676;23.268;2023-01-24T02:59:47;95773.16;;;4.45;100.00
11878;BME280;5998;42.676;23.268;2023-01-24T03:02:14;95760.03;;;4.48;100.00
11878;BME280;5998;42.676;23.268;2023-01-24T03:04:41;95762.44;;;4.50;100.00
11878;BME280;5998;42.676;23.268;2023-01-24T03:07:07;95745.91;;;4.48;100.00
11878;BME280;5998;42.676;23.268;2023-01-24T03:09:34;95752.91;;;4.39;100.00
11878;BME280;5998;42.676;23.268;2023-01-24T03:12:06;95754.94;;;4.52;100.00
11878;BME280;5998;42.676;23.268;2023-01-24T03:14:50;95757.16;;;4.40;100.00
11878;BME280;5998;42.676;23.268;2023-01-24T03:17:34;95765.66;;;4.47;100.00
11878;BME280;5998;42.676;23.268;2023-01-24T03:20:19;95759.28;;;4.43;100.00
11878;BME280;5998;42.676;23.268;2023-01-24T03:23:03;95757.75;;;4.37;100.00
11878;BME280;5998;42.676;23.268;2023-01-24T03:25:47;95759.41;;;4.23;100.00
11878;BME280;5998;42.676;23.268;2023-01-24T03:28:33;95762.38;;;4.16;100.00
11878;BME280;5998;42.676;23.268;2023-01-24T03:31:17;95761.09;;;4.08;100.00
11878;BME280;5998;42.676;23.268;2023-01-24T03:34:01;95761.09;;;4.08;100.00
11878;BME280;5998;42.676;23.268;2023-01-24T03:36:45;95765.16;;;4.01;100.00
11878;BME280;5998;42.676;23.268;2023-01-24T03:39:11;95758.47;;;3.98;100.00
11878;BME280;5998;42.676;23.268;2023-01-24T03:41:55;95753.72;;;3.95;100.00
11878;BME280;5998;42.676;23.268;2023-01-24T03:44:23;95758.47;;;3.98;100.00
11878;BME280;5998;42.676;23.268;2023-01-24T03:46:50;95758.22;;;4.00;100.00
11878;BME280;5998;42.676;23.268;2023-01-24T03:49:17;95763.06;;;3.88;100.00
11878;BME280;5998;42.676;23.268;2023-01-24T03:51:44;95757.69;;;3.93;100.00
11878;BME280;5998;42.676;23.268;2023-01-24T03:54:28;95753.50;;;3.87;100.00
11878;BME280;5998;42.676;23.268;2023-01-24T03:56:54;95750.22;;;4.00;100.00
11878;BME280;5998;42.676;23.268;2023-01-24T03:59:21;95749.44;;;3.94;100.00
11878;BME280;5998;42.676;23.268;2023-01-24T04:01:49;95751.31;;;3.94;100.00
11878;BME280;5998;42.676;23.268;2023-01-24T04:04:16;95749.47;;;3.89;100.00
11878;BME280;5998;42.676;23.268;2023-01-24T04:06:42;95740.69;;;3.89;100.00
11878;BME280;5998;42.676;23.268;2023-01-24T04:09:09;95736.69;;;3.91;100.00
11878;BME280;5998;42.676;23.268;2023-01-24T04:11:36;95734.56;;;3.88;100.00
11878;BME280;5998;42.676;23.268;2023-01-24T04:14:02;95743.06;;;3.90;100.00
11878;BME280;5998;42.676;23.268;2023-01-24T04:16:29;95744.69;;;3.86;100.00
11878;BME280;5998;42.676;23.268;2023-01-24T04:18:57;95745.53;;;3.82;100.00
11878;BME280;5998;42.676;23.268;2023-01-24T04:21:24;95745.81;;;3.75;100.00
11878;BME280;5998;42.676;23.268;2023-01-24T04:23:50;95745.81;;;3.75;100.00
11878;BME280;5998;42.676;23.268;2023-01-24T04:26:17;95734.66;;;3.68;100.00
11878;BME280;5998;42.676;23.268;2023-01-24T04:28:43;95746.34;;;3.77;100.00
11878;BME280;5998;42.676;23.268;2023-01-24T04:31:10;95743.41;;;3.79;100.00
11878;BME280;5998;42.676;23.268;2023-01-24T04:33:37;95746.88;;;3.74;100.00
11878;BME280;5998;42.676;23.268;2023-01-24T04:36:06;95752.50;;;3.73;100.00
11878;BME280;5998;42.676;23.268;2023-01-24T04:38:35;95759.16;;;3.70;100.00
11878;BME280;5998;42.676;23.268;2023-01-24T04:41:01;95746.41;;;3.62;100.00
11878;BME280;5998;42.676;23.268;2023-01-24T04:43:28;95759.72;;;3.67;100.00
11878;BME280;5998;42.676;23.268;2023-01-24T04:45:56;95755.97;;;3.68;100.00
11878;BME280;5998;42.676;23.268;2023-01-24T04:48:23;95757.84;;;3.63;100.00
11878;BME280;5998;42.676;23.268;2023-01-24T04:50:50;95757.84;;;3.63;100.00
11878;BME280;5998;42.676;23.268;2023-01-24T04:53:18;95767.00;;;4.00;100.00
11878;BME280;5998;42.676;23.268;2023-01-24T04:55:45;95764.75;;;4.23;100.00
11878;BME280;5998;42.676;23.268;2023-01-24T04:58:11;95773.81;;;4.60;100.00
11878;BME280;5998;42.676;23.268;2023-01-24T05:00:38;95773.88;;;4.84;100.00
11878;BME280;5998;42.676;23.268;2023-01-24T05:03:05;95768.28;;;4.52;100.00
11878;BME280;5998;42.676;23.268;2023-01-24T05:05:32;95758.69;;;4.85;100.00
11878;BME280;5998;42.676;23.268;2023-01-24T05:07:59;95760.66;;;4.74;100.00
11878;BME280;5998;42.676;23.268;2023-01-24T05:10:27;95763.16;;;4.22;100.00
11878;BME280;5998;42.676;23.268;2023-01-24T05:12:53;95765.16;;;4.01;100.00
11878;BME280;5998;42.676;23.268;2023-01-24T05:15:20;95768.63;;;3.96;100.00
11878;BME280;5998;42.676;23.268;2023-01-24T05:17:48;95772.66;;;3.89;100.00
11878;BME280;5998;42.676;23.268;2023-01-24T05:20:15;95782.53;;;3.83;100.00
11878;BME280;5998;42.676;23.268;2023-01-24T05:22:42;95789.16;;;3.91;100.00
11878;BME280;5998;42.676;23.268;2023-01-24T05:25:12;95798.53;;;3.83;100.00
11878;BME280;5998;42.676;23.268;2023-01-24T05:27:41;95804.69;;;3.69;100.00
11878;BME280;5998;42.676;23.268;2023-01-24T05:30:09;95812.44;;;3.70;100.00
11878;BME280;5998;42.676;23.268;2023-01-24T05:32:36;95812.94;;;3.72;100.00
11878;BME280;5998;42.676;23.268;2023-01-24T05:35:04;95819.03;;;3.83;100.00
11878;BME280;5998;42.676;23.268;2023-01-24T05:37:30;95803.91;;;3.73;100.00
11878;BME280;5998;42.676;23.268;2023-01-24T05:39:57;95796.78;;;3.53;100.00
11878;BME280;5998;42.676;23.268;2023-01-24T05:42:25;95811.66;;;3.60;100.00
11878;BME280;5998;42.676;23.268;2023-01-24T05:44:53;95819.34;;;3.71;100.00
11878;BME280;5998;42.676;23.268;2023-01-24T05:47:20;95827.88;;;3.63;100.00
11878;BME280;5998;42.676;23.268;2023-01-24T05:49:46;95826.00;;;3.79;100.00
11878;BME280;5998;42.676;23.268;2023-01-24T05:52:13;95818.00;;;3.74;100.00
11878;BME280;5998;42.676;23.268;2023-01-24T05:54:44;95827.09;;;3.68;100.00
11878;BME280;5998;42.676;23.268;2023-01-24T05:57:10;95826.31;;;3.57;100.00
11878;BME280;5998;42.676;23.268;2023-01-24T05:59:37;95822.88;;;3.46;100.00
11878;BME280;5998;42.676;23.268;2023-01-24T06:02:05;95839.63;;;3.52;100.00
11878;BME280;5998;42.676;23.268;2023-01-24T06:04:32;95846.06;;;3.46;100.00
11878;BME280;5998;42.676;23.268;2023-01-24T06:06:59;95842.84;;;3.44;100.00
11878;BME280;5998;42.676;23.268;2023-01-24T06:09:26;95840.75;;;3.31;100.00
11878;BME280;5998;42.676;23.268;2023-01-24T06:11:53;95847.69;;;3.32;100.00
11878;BME280;5998;42.676;23.268;2023-01-24T06:14:20;95848.69;;;3.41;100.00
11878;BME280;5998;42.676;23.268;2023-01-24T06:16:46;95846.88;;;3.31;100.00
11878;BME280;5998;42.676;23.268;2023-01-24T06:19:15;95847.13;;;3.30;100.00
11878;BME280;5998;42.676;23.268;2023-01-24T06:21:44;95853.53;;;3.24;100.00
11878;BME280;5998;42.676;23.268;2023-01-24T06:24:17;95824.00;;;3.05;100.00
11878;BME280;5998;42.676;23.268;2023-01-24T06:26:45;95866.31;;;3.27;100.00
11878;BME280;5998;42.676;23.268;2023-01-24T06:29:12;95868.97;;;3.22;100.00
11878;BME280;5998;42.676;23.268;2023-01-24T06:31:46;95878.00;;;3.31;100.00
11878;BME280;5998;42.676;23.268;2023-01-24T06:34:32;95876.69;;;3.13;100.00
11878;BME280;5998;42.676;23.268;2023-01-24T06:37:13;95890.25;;;3.12;100.00
11878;BME280;5998;42.676;23.268;2023-01-24T06:39:49;95889.47;;;3.01;100.00
11878;BME280;5998;42.676;23.268;2023-01-24T06:42:17;95903.00;;;2.99;100.00
11878;BME280;5998;42.676;23.268;2023-01-24T06:44:44;95895.84;;;2.90;100.00
11878;BME280;5998;42.676;23.268;2023-01-24T06:47:11;95904.63;;;2.95;100.00
11878;BME280;5998;42.676;23.268;2023-01-24T06:49:39;95894.50;;;2.92;100.00
11878;BME280;5998;42.676;23.268;2023-01-24T06:52:07;95888.09;;;2.68;100.00
11878;BME280;5998;42.676;23.268;2023-01-24T06:54:34;95899.25;;;2.70;100.00
11878;BME280;5998;42.676;23.268;2023-01-24T06:57:02;95882.75;;;2.53;100.00
11878;BME280;5998;42.676;23.268;2023-01-24T06:59:29;95896.59;;;2.55;100.00
11878;BME280;5998;42.676;23.268;2023-01-24T07:01:56;95907.22;;;2.55;100.00
11878;BME280;5998;42.676;23.268;2023-01-24T07:04:23;95907.19;;;2.45;100.00
11878;BME280;5998;42.676;23.268;2023-01-24T07:06:51;95910.38;;;2.47;100.00
11878;BME280;5998;42.676;23.268;2023-01-24T07:09:18;95911.16;;;2.48;100.00
11878;BME280;5998;42.676;23.268;2023-01-24T07:11:45;95918.31;;;2.32;100.00
11878;BME280;5998;42.676;23.268;2023-01-24T07:14:14;95915.66;;;2.42;100.00
11878;BME280;5998;42.676;23.268;2023-01-24T07:16:41;95921.03;;;2.47;100.00
11878;BME280;5998;42.676;23.268;2023-01-24T07:19:13;95921.81;;;2.48;100.00
11878;BME280;5998;42.676;23.268;2023-01-24T07:21:40;95922.88;;;2.47;100.00
11878;BME280;5998;42.676;23.268;2023-01-24T07:24:13;95922.09;;;2.51;100.00
11878;BME280;5998;42.676;23.268;2023-01-24T07:26:41;95936.41;;;2.50;100.00
11878;BME280;5998;42.676;23.268;2023-01-24T07:29:07;95930.59;;;2.53;100.00
11878;BME280;5998;42.676;23.268;2023-01-24T07:31:34;95929.84;;;2.68;100.00
11878;BME280;5998;42.676;23.268;2023-01-24T07:34:01;95929.31;;;2.61;100.00
11878;BME280;5998;42.676;23.268;2023-01-24T07:36:28;95927.41;;;2.56;100.00
11878;BME280;5998;42.676;23.268;2023-01-24T07:38:55;95934.34;;;2.57;100.00
11878;BME280;5998;42.676;23.268;2023-01-24T07:41:23;95939.16;;;2.65;100.00
11878;BME280;5998;42.676;23.268;2023-01-24T07:43:50;95938.84;;;2.62;100.00
11878;BME280;5998;42.676;23.268;2023-01-24T07:46:17;95938.63;;;2.63;100.00
11878;BME280;5998;42.676;23.268;2023-01-24T07:48:44;95945.28;;;2.71;100.00
11878;BME280;5998;42.676;23.268;2023-01-24T07:51:11;95951.63;;;2.60;100.00
11878;BME280;5998;42.676;23.268;2023-01-24T07:53:38;95952.13;;;2.57;100.00
11878;BME280;5998;42.676;23.268;2023-01-24T07:56:05;95960.69;;;2.69;100.00
11878;BME280;5998;42.676;23.268;2023-01-24T07:58:33;95964.94;;;2.65;100.00
11878;BME280;5998;42.676;23.268;2023-01-24T08:01:00;95964.63;;;2.56;100.00
11878;BME280;5998;42.676;23.268;2023-01-24T08:03:27;95965.72;;;2.55;100.00
11878;BME280;5998;42.676;23.268;2023-01-24T08:05:53;95967.06;;;2.68;100.00
11878;BME280;5998;42.676;23.268;2023-01-24T08:08:20;95961.22;;;2.71;100.00
11878;BME280;5998;42.676;23.268;2023-01-24T08:10:47;95967.34;;;2.66;100.00
11878;BME280;5998;42.676;23.268;2023-01-24T08:13:13;95963.38;;;2.84;100.00
11878;BME280;5998;42.676;23.268;2023-01-24T08:15:41;95964.19;;;2.79;100.00
11878;BME280;5998;42.676;23.268;2023-01-24T08:18:08;95949.78;;;2.70;100.00
11878;BME280;5998;42.676;23.268;2023-01-24T08:20:35;95969.22;;;2.86;100.00
11878;BME280;5998;42.676;23.268;2023-01-24T08:23:01;95956.78;;;2.96;100.00
11878;BME280;5998;42.676;23.268;2023-01-24T08:25:28;95963.72;;;3.08;100.00
11878;BME280;5998;42.676;23.268;2023-01-24T08:27:57;95958.13;;;3.14;100.00
11878;BME280;5998;42.676;23.268;2023-01-24T08:30:24;95970.38;;;3.25;100.00
11878;BME280;5998;42.676;23.268;2023-01-24T08:33:00;95968.25;;;3.32;100.00
11878;BME280;5998;42.676;23.268;2023-01-24T08:35:26;95969.56;;;3.25;100.00
11878;BME280;5998;42.676;23.268;2023-01-24T08:37:53;95979.41;;;3.04;100.00
11878;BME280;5998;42.676;23.268;2023-01-24T08:40:20;95977.25;;;3.11;100.00
11878;BME280;5998;42.676;23.268;2023-01-24T08:42:46;95978.59;;;3.09;100.00
11878;BME280;5998;42.676;23.268;2023-01-24T08:45:13;95978.06;;;3.02;100.00
11878;BME280;5998;42.676;23.268;2023-01-24T08:47:40;95970.63;;;3.09;100.00
11878;BME280;5998;42.676;23.268;2023-01-24T08:50:09;95981.78;;;3.11;100.00
11878;BME280;5998;42.676;23.268;2023-01-24T08:52:40;95977.25;;;3.06;100.00
11878;BME280;5998;42.676;23.268;2023-01-24T08:55:07;95984.13;;;2.87;100.00
11878;BME280;5998;42.676;23.268;2023-01-24T08:57:33;95983.09;;;3.03;100.00
11878;BME280;5998;42.676;23.268;2023-01-24T09:00:00;95985.75;;;2.98;100.00
11878;BME280;5998;42.676;23.268;2023-01-24T09:02:27;95949.81;;;2.80;100.00
11878;BME280;5998;42.676;23.268;2023-01-24T09:04:54;95977.53;;;3.10;100.00
11878;BME280;5998;42.676;23.268;2023-01-24T09:07:22;95977.81;;;3.38;100.00
11878;BME280;5998;42.676;23.268;2023-01-24T09:09:49;95978.13;;;3.57;100.00
11878;BME280;5998;42.676;23.268;2023-01-24T09:12:16;95975.97;;;3.44;100.00
11878;BME280;5998;42.676;23.268;2023-01-24T09:14:43;95964.53;;;3.23;100.00
11878;BME280;5998;42.676;23.268;2023-01-24T09:17:09;95968.47;;;3.06;100.00
11878;BME280;5998;42.676;23.268;2023-01-24T09:19:36;95974.34;;;3.28;100.00
11878;BME280;5998;42.676;23.268;2023-01-24T09:22:03;95971.97;;;3.36;100.00
11878;BME280;5998;42.676;23.268;2023-01-24T09:24:31;95976.50;;;3.41;100.00
11878;BME280;5998;42.676;23.268;2023-01-24T09:26:57;95971.72;;;3.53;100.00
11878;BME280;5998;42.676;23.268;2023-01-24T09:29:24;95971.72;;;3.43;100.00
11878;BME280;5998;42.676;23.268;2023-01-24T09:31:51;95969.84;;;3.48;100.00
11878;BME280;5998;42.676;23.268;2023-01-24T09:34:20;95966.13;;;3.34;100.00
11878;BME280;5998;42.676;23.268;2023-01-24T09:36:47;95964.50;;;3.43;100.00
11878;BME280;5998;42.676;23.268;2023-01-24T09:39:14;95967.19;;;3.48;100.00
11878;BME280;5998;42.676;23.268;2023-01-24T09:41:50;95957.88;;;3.51;100.00
11878;BME280;5998;42.676;23.268;2023-01-24T09:44:27;95958.38;;;3.58;100.00
11878;BME280;5998;42.676;23.268;2023-01-24T09:47:02;95959.16;;;3.84;100.00
11878;BME280;5998;42.676;23.268;2023-01-24T09:49:40;95956.97;;;4.11;100.00
11878;BME280;5998;42.676;23.268;2023-01-24T09:52:15;95955.16;;;3.91;100.00
11878;BME280;5998;42.676;23.268;2023-01-24T09:54:48;95952.16;;;4.18;100.00
11878;BME280;5998;42.676;23.268;2023-01-24T09:57:24;95952.16;;;4.13;100.00
11878;BME280;5998;42.676;23.268;2023-01-24T09:59:56;95942.03;;;4.25;100.00
11878;BME280;5998;42.676;23.268;2023-01-24T10:02:25;95946.97;;;4.52;100.00
11878;BME280;5998;42.676;23.268;2023-01-24T10:04:53;95932.69;;;4.23;100.00
11878;BME280;5998;42.676;23.268;2023-01-24T10:07:44;95942.28;;;4.18;100.00
11878;BME280;5998;42.676;23.268;2023-01-24T10:10:28;95941.00;;;4.11;100.00
11878;BME280;5998;42.676;23.268;2023-01-24T10:13:06;95940.22;;;3.90;100.00
11878;BME280;5998;42.676;23.268;2023-01-24T10:15:42;95931.19;;;3.86;100.00
11878;BME280;5998;42.676;23.268;2023-01-24T10:21:18;95923.13;;;4.16;100.00
11878;BME280;5998;42.676;23.268;2023-01-24T10:23:48;95930.03;;;4.12;100.00
11878;BME280;5998;42.676;23.268;2023-01-24T10:26:18;95919.38;;;4.23;100.00
11878;BME280;5998;42.676;23.268;2023-01-24T10:28:49;95919.72;;;4.01;100.00
11878;BME280;5998;42.676;23.268;2023-01-24T10:31:19;95921.50;;;4.26;100.00
11878;BME280;5998;42.676;23.268;2023-01-24T10:33:50;95918.69;;;4.56;100.00
11878;BME280;5998;42.676;23.268;2023-01-24T10:36:24;95912.28;;;4.52;100.00
11878;BME280;5998;42.676;23.268;2023-01-24T10:38:55;95908.13;;;4.36;100.00
11878;BME280;5998;42.676;23.268;2023-01-24T10:41:23;95912.94;;;4.34;100.00
11878;BME280;5998;42.676;23.268;2023-01-24T10:43:57;95911.91;;;4.20;100.00
11878;BME280;5998;42.676;23.268;2023-01-24T10:46:44;95903.06;;;4.29;100.00
11878;BME280;5998;42.676;23.268;2023-01-24T10:49:19;95906.81;;;4.28;100.00
11878;BME280;5998;42.676;23.268;2023-01-24T10:52:12;95912.38;;;4.37;100.00
11878;BME280;5998;42.676;23.268;2023-01-24T10:54:44;95898.28;;;4.21;100.00
11878;BME280;5998;42.676;23.268;2023-01-24T10:57:32;95902.75;;;4.41;100.00
11878;BME280;5998;42.676;23.268;2023-01-24T11:00:24;95900.16;;;4.26;100.00
11878;BME280;5998;42.676;23.268;2023-01-24T11:02:54;95902.50;;;4.37;100.00
11878;BME280;5998;42.676;23.268;2023-01-24T11:05:22;95900.63;;;4.38;100.00
11878;BME280;5998;42.676;23.268;2023-01-24T11:07:51;95895.53;;;4.46;100.00
11878;BME280;5998;42.676;23.268;2023-01-24T11:10:21;95900.94;;;4.26;100.00
11878;BME280;5998;42.676;23.268;2023-01-24T11:12:51;95899.66;;;4.18;100.00
11878;BME280;5998;42.676;23.268;2023-01-24T11:15:22;95861.41;;;3.74;100.00
11878;BME280;5998;42.676;23.268;2023-01-24T11:17:54;95883.25;;;3.81;100.00
11878;BME280;5998;42.676;23.268;2023-01-24T11:20:27;95895.50;;;3.77;100.00
11878;BME280;5998;42.676;23.268;2023-01-24T11:23:04;95895.25;;;3.69;100.00
11878;BME280;5998;42.676;23.268;2023-01-24T11:25:31;95897.63;;;3.80;100.00
11878;BME280;5998;42.676;23.268;2023-01-24T11:27:58;95887.50;;;3.77;100.00
11878;BME280;5998;42.676;23.268;2023-01-24T11:30:27;95884.66;;;3.48;100.00
11878;BME280;5998;42.676;23.268;2023-01-24T11:33:10;95878.50;;;3.58;100.00
11878;BME280;5998;42.676;23.268;2023-01-24T11:35:42;95885.44;;;3.59;100.00
11878;BME280;5998;42.676;23.268;2023-01-24T11:38:22;95877.72;;;3.42;100.00
11878;BME280;5998;42.676;23.268;2023-01-24T11:40:58;95882.81;;;3.34;100.00
11878;BME280;5998;42.676;23.268;2023-01-24T11:43:45;95887.56;;;3.52;100.00
11878;BME280;5998;42.676;23.268;2023-01-24T11:46:28;95885.94;;;3.66;100.00
11878;BME280;5998;42.676;23.268;2023-01-24T11:49:15;95882.44;;;3.81;100.00
11878;BME280;5998;42.676;23.268;2023-01-24T11:51:54;95881.34;;;3.92;100.00
11878;BME280;5998;42.676;23.268;2023-01-24T11:54:37;95888.94;;;4.29;100.00
11878;BME280;5998;42.676;23.268;2023-01-24T11:57:16;95883.25;;;3.81;100.00
11878;BME280;5998;42.676;23.268;2023-01-24T11:59:56;95876.06;;;3.77;100.00
11878;BME280;5998;42.676;23.268;2023-01-24T12:02:39;95877.19;;;3.50;100.00
11878;BME280;5998;42.676;23.268;2023-01-24T12:05:29;95878.00;;;3.51;100.00
11878;BME280;5998;42.676;23.268;2023-01-24T12:08:09;95879.81;;;3.76;100.00
11878;BME280;5998;42.676;23.268;2023-01-24T12:10:51;95880.09;;;3.59;100.00
11878;BME280;5998;42.676;23.268;2023-01-24T12:13:29;95880.09;;;3.64;100.00
11878;BME280;5998;42.676;23.268;2023-01-24T12:16:09;95880.03;;;3.79;100.00
11878;BME280;5998;42.676;23.268;2023-01-24T12:18:57;95883.25;;;3.81;100.00
11878;BME280;5998;42.676;23.268;2023-01-24T12:21:28;95876.59;;;3.84;100.00
11878;BME280;5998;42.676;23.268;2023-01-24T12:24:00;95874.72;;;3.89;100.00
11878;BME280;5998;42.676;23.268;2023-01-24T12:26:29;95875.03;;;3.63;100.00
11878;BME280;5998;42.676;23.268;2023-01-24T12:29:00;95872.34;;;3.63;100.00
11878;BME280;5998;42.676;23.268;2023-01-24T12:31:38;95874.22;;;3.67;100.00
11878;BME280;5998;42.676;23.268;2023-01-24T12:34:17;95877.97;;;3.56;100.00
11878;BME280;5998;42.676;23.268;2023-01-24T12:36:56;95882.19;;;3.77;100.00
11878;BME280;5998;42.676;23.268;2023-01-24T12:39:28;95876.84;;;3.82;100.00
11878;BME280;5998;42.676;23.268;2023-01-24T12:42:04;95881.94;;;3.69;100.00
11878;BME280;5998;42.676;23.268;2023-01-24T12:44:38;95873.72;;;3.55;100.00
11878;BME280;5998;42.676;23.268;2023-01-24T12:47:19;95874.00;;;3.43;100.00
11878;BME280;5998;42.676;23.268;2023-01-24T12:49:56;95874.78;;;3.64;100.00
11878;BME280;5998;42.676;23.268;2023-01-24T12:52:31;95881.94;;;3.79;100.00
11878;BME280;5998;42.676;23.268;2023-01-24T12:55:04;95879.53;;;3.72;100.00
11878;BME280;5998;42.676;23.268;2023-01-24T12:57:39;95880.63;;;3.61;100.00
11878;BME280;5998;42.676;23.268;2023-01-24T13:00:14;95874.78;;;3.54;100.00
11878;BME280;5998;42.676;23.268;2023-01-24T13:03:06;95875.28;;;3.76;100.00
11878;BME280;5998;42.676;23.268;2023-01-24T13:05:47;95873.03;;;4.08;100.00
11878;BME280;5998;42.676;23.268;2023-01-24T13:08:23;95876.47;;;4.14;100.00
11878;BME280;5998;42.676;23.268;2023-01-24T13:11:04;95869.84;;;4.11;100.00
11878;BME280;5998;42.676;23.268;2023-01-24T13:13:39;95875.19;;;4.06;100.00
11878;BME280;5998;42.676;23.268;2023-01-24T13:16:38;95875.53;;;3.80;100.00
11878;BME280;5998;42.676;23.268;2023-01-24T13:19:13;95870.94;;;3.90;100.00
11878;BME280;5998;42.676;23.268;2023-01-24T13:21:50;95873.13;;;3.83;100.00
11878;BME280;5998;42.676;23.268;2023-01-24T13:24:35;95866.41;;;3.96;100.00